Time;durP1;ratioP1;P1;durP2;ratioP2;P2;SDS_P1;SDS_P2;PMS_P1;PMS_P2;Temp;Humidity;BMP_temperature;BMP_pressure;BME280_temperature;BME280_humidity;BME280_pressure;Samples;Min_cycle;Max_cycle;Signal;HPM_P1;HPM_P2
2022/11/02 00:02:43;;;;;;;10.50;2.83;;;;;;;15.47;77.37;100650.41;8257340;28;20157;-50
2022/11/02 00:06:43;;;;;;;17.73;1.83;;;;;;;15.37;77.82;100666.09;8259162;28;20055;-50
2022/11/02 00:10:44;;;;;;;10.30;1.33;;;;;;;15.36;77.89;100666.22;8259039;28;20042;-49
2022/11/02 00:14:45;;;;;;;16.98;1.90;;;;;;;15.36;78.02;100664.34;8227022;28;20098;-49
2022/11/02 00:18:49;;;;;;;7.63;1.95;;;;;;;15.31;78.65;100661.28;8226013;28;20496;-49
2022/11/02 00:22:55;;;;;;;8.07;1.73;;;;;;;15.36;78.14;100650.75;8254536;28;20046;-49
2022/11/02 00:26:56;;;;;;;12.98;1.40;;;;;;;15.31;78.74;100653.09;8258810;28;20046;-50
2022/11/02 00:30:57;;;;;;;8.20;1.70;;;;;;;15.26;78.95;100650.03;8258456;28;20037;-51
2022/11/02 00:34:57;;;;;;;8.98;1.33;;;;;;;15.23;78.89;100655.81;8258067;28;20042;-49
2022/11/02 00:38:58;;;;;;;13.55;1.92;;;;;;;15.10;79.51;100657.31;8259156;28;20030;-50
2022/11/02 00:42:59;;;;;;;12.95;1.85;;;;;;;15.02;80.02;100652.69;8274194;28;20495;-52
2022/11/02 00:47:00;;;;;;;12.43;1.80;;;;;;;15.01;79.94;100653.69;8264709;28;20050;-50
2022/11/02 00:51:01;;;;;;;14.15;1.73;;;;;;;14.94;80.33;100655.38;8264150;28;20046;-53
2022/11/02 00:55:03;;;;;;;13.20;2.25;;;;;;;14.86;80.77;100655.38;8263826;28;20053;-52
2022/11/02 00:59:04;;;;;;;6.53;1.67;;;;;;;14.82;80.83;100659.44;8264934;28;20254;-51
2022/11/02 01:03:05;;;;;;;12.10;1.90;;;;;;;14.61;81.66;100664.44;8264435;28;20415;-52
2022/11/02 01:07:06;;;;;;;11.82;1.80;;;;;;;14.51;82.53;100674.59;8263914;28;20061;-51
2022/11/02 01:11:14;;;;;;;15.07;1.65;;;;;;;14.49;82.53;100679.34;8260774;28;20046;-50
2022/11/02 01:15:15;;;;;;;11.48;2.00;;;;;;;14.51;82.31;100687.31;8260976;28;20049;-51
2022/11/02 01:19:16;;;;;;;9.73;1.52;;;;;;;14.45;82.54;100671.69;8279130;28;20046;-52
2022/11/02 01:23:16;;;;;;;9.45;2.42;;;;;;;14.42;83.14;100689.16;8263561;28;20043;-50
2022/11/02 01:27:17;;;;;;;9.80;2.30;;;;;;;14.32;83.40;100682.13;8263211;28;20046;-51
2022/11/02 01:31:18;;;;;;;11.23;1.73;;;;;;;14.29;83.53;100671.56;8262929;28;20053;-50
2022/11/02 01:35:19;;;;;;;8.63;2.00;;;;;;;14.31;83.29;100664.97;8263387;28;20042;-50
2022/11/02 01:39:19;;;;;;;10.98;1.92;;;;;;;14.25;83.56;100659.31;8263612;28;20411;-53
2022/11/02 01:43:30;;;;;;;14.10;2.42;;;;;;;14.17;84.24;100670.94;8263130;28;20046;-53
2022/11/02 01:47:36;;;;;;;5.43;1.48;;;;;;;14.15;84.01;100663.97;8262784;28;20793;-50
2022/11/02 01:51:46;;;;;;;14.95;2.03;;;;;;;14.10;84.52;100675.34;8261662;28;20034;-53
2022/11/02 01:55:46;;;;;;;14.27;1.67;;;;;;;14.09;84.89;100668.16;8261730;28;20121;-50
2022/11/02 02:00:09;;;;;;;7.35;2.13;;;;;;;14.01;85.01;100657.25;8262463;28;20042;-50
2022/11/02 02:04:18;;;;;;;13.25;2.33;;;;;;;13.98;85.65;100668.44;8261788;28;20038;-51
2022/11/02 02:08:22;;;;;;;15.05;2.58;;;;;;;13.87;85.85;100671.41;8277948;28;20062;-50
2022/11/02 02:12:24;;;;;;;10.23;1.88;;;;;;;13.86;86.07;100661.56;8248415;28;20097;-51
2022/11/02 02:16:55;;;;;;;12.45;2.15;;;;;;;13.99;85.75;100675.56;8229010;28;20039;-51
2022/11/02 02:21:10;;;;;;;10.45;2.35;;;;;;;13.92;86.22;100673.66;8230570;28;20038;-50
2022/11/02 02:25:49;;;;;;;7.15;1.60;;;;;;;13.79;86.81;100684.94;8232273;28;20088;-52
2022/11/02 02:30:09;;;;;;;13.32;1.92;;;;;;;13.72;87.03;100684.72;8251370;28;20038;-53
2022/11/02 02:34:36;;;;;;;15.57;2.22;;;;;;;13.79;86.13;100676.78;8261906;28;20492;-50
2022/11/02 02:38:47;;;;;;;12.32;2.13;;;;;;;13.79;85.99;100671.34;8233095;28;20041;-51
2022/11/02 02:42:56;;;;;;;8.98;1.85;;;;;;;13.94;84.72;100672.50;8247449;28;20062;-50
2022/11/02 02:47:02;;;;;;;12.30;1.83;;;;;;;13.74;85.58;100665.53;8228588;28;20039;-49
2022/11/02 02:51:09;;;;;;;11.25;1.90;;;;;;;13.59;86.71;100677.97;8259913;28;20049;-50
2022/11/02 02:55:17;;;;;;;12.43;2.38;;;;;;;13.36;88.74;100682.16;8238047;28;20100;-50
2022/11/02 02:59:25;;;;;;;11.35;1.92;;;;;;;13.39;88.34;100693.56;8245598;28;20475;-52
2022/11/02 03:03:28;;;;;;;15.27;1.80;;;;;;;13.55;86.35;100688.28;8260672;28;20044;-52
2022/11/02 03:07:32;;;;;;;16.38;2.35;;;;;;;13.76;85.40;100686.09;8242519;28;20042;-49
2022/11/02 03:11:38;;;;;;;14.57;1.90;;;;;;;13.93;84.22;100691.69;8230425;28;20035;-49
2022/11/02 03:15:49;;;;;;;12.18;2.08;;;;;;;13.87;83.99;100687.72;8227625;28;20039;-49
2022/11/02 03:24:28;;;;;;;10.05;1.52;;;;;;;13.66;85.01;100695.34;8410873;27;20480;-51
2022/11/02 03:29:03;;;;;;;11.57;2.00;;;;;;;13.88;83.97;100701.16;8402117;27;20055;-49
2022/11/02 03:33:18;;;;;;;8.60;1.77;;;;;;;14.12;82.34;100711.34;8402602;27;20499;-48
2022/11/02 03:37:29;;;;;;;10.45;1.67;;;;;;;14.30;80.94;100712.19;8415087;28;20493;-49
2022/11/02 03:41:33;;;;;;;10.55;1.88;;;;;;;14.29;80.89;100726.81;8401937;28;20397;-48
2022/11/02 03:45:39;;;;;;;9.90;1.35;;;;;;;14.41;79.55;100724.69;8419363;28;20044;-57
2022/11/02 03:49:41;;;;;;;10.27;1.58;;;;;;;14.42;78.48;100721.81;8419590;28;20071;-56
2022/11/02 03:53:51;;;;;;;9.23;1.50;;;;;;;14.55;78.22;100741.25;8417817;28;20040;-56
2022/11/02 03:57:52;;;;;;;7.50;2.08;;;;;;;14.51;78.10;100750.78;8418097;28;20044;-56
2022/11/02 04:02:00;;;;;;;7.78;1.65;;;;;;;14.34;78.98;100748.97;8419052;28;20045;-55
2022/11/02 04:06:02;;;;;;;9.18;1.30;;;;;;;14.41;78.44;100747.31;8418092;28;20501;-54
2022/11/02 04:10:06;;;;;;;6.82;1.23;;;;;;;14.48;78.24;100761.97;8418721;28;20504;-55
2022/11/02 04:14:38;;;;;;;5.95;1.42;;;;;;;14.41;78.13;100766.34;8412492;28;20036;-56
2022/11/02 04:19:30;;;;;;;7.22;1.17;;;;;;;14.23;78.81;100770.97;8402421;27;20051;-55
2022/11/02 04:27:11;;;;;;;10.23;1.33;;;;;;;14.26;78.36;100781.53;8384590;27;20447;-55
2022/11/02 04:31:12;;;;;;;8.38;1.77;;;;;;;14.14;79.22;100782.75;8400489;27;20040;-56
2022/11/02 04:35:15;;;;;;;7.50;1.35;;;;;;;14.21;79.07;100794.69;8381431;28;20501;-54
2022/11/02 04:39:18;;;;;;;11.57;1.40;;;;;;;14.24;78.99;100799.88;8378369;28;20320;-55
2022/11/02 04:43:19;;;;;;;8.27;1.70;;;;;;;14.13;79.75;100808.25;8377412;28;20040;-53
2022/11/02 04:47:19;;;;;;;9.23;1.45;;;;;;;13.98;80.43;100803.50;8378524;28;20390;-56
2022/11/02 04:51:23;;;;;;;10.50;1.98;;;;;;;14.02;80.03;100811.19;8378123;28;20036;-56
2022/11/02 04:55:25;;;;;;;14.65;1.90;;;;;;;13.98;80.75;100828.84;8378636;28;20498;-56
2022/11/02 04:59:27;;;;;;;13.60;1.88;;;;;;;13.98;80.37;100830.69;8377959;28;20048;-55
2022/11/02 05:03:27;;;;;;;9.70;1.80;;;;;;;13.91;80.76;100835.91;8377778;28;20131;-56
2022/11/02 05:07:28;;;;;;;10.82;1.90;;;;;;;13.92;80.66;100832.16;8388227;28;20036;-54
2022/11/02 05:11:29;;;;;;;18.25;2.13;;;;;;;13.87;80.85;100839.91;8401151;28;20155;-53
2022/11/02 05:15:30;;;;;;;4.72;1.40;;;;;;;13.85;80.68;100833.81;8360448;28;20570;-56
2022/11/02 05:19:33;;;;;;;5.63;1.13;;;;;;;13.79;80.94;100842.56;8363589;28;20052;-55
2022/11/02 05:23:35;;;;;;;10.55;1.65;;;;;;;13.83;80.89;100846.69;8397351;28;20055;-56
2022/11/02 05:27:37;;;;;;;11.75;1.48;;;;;;;13.76;80.95;100842.88;8416991;28;20570;-52
2022/11/02 05:31:38;;;;;;;14.45;2.03;;;;;;;13.79;80.73;100839.84;8378305;28;20433;-56
2022/11/02 05:35:39;;;;;;;7.55;1.30;;;;;;;13.75;81.10;100852.00;8393534;28;20044;-55
2022/11/02 05:39:40;;;;;;;11.82;1.58;;;;;;;13.77;81.26;100863.59;8393167;28;20044;-55
2022/11/02 05:43:41;;;;;;;12.32;2.03;;;;;;;13.76;81.45;100875.47;8392903;28;20124;-55
2022/11/02 05:47:44;;;;;;;14.05;1.85;;;;;;;13.81;80.85;100878.56;8391773;28;20097;-53
2022/11/02 05:51:45;;;;;;;15.05;1.77;;;;;;;13.78;81.07;100885.19;8392973;28;20040;-56
2022/11/02 05:55:45;;;;;;;14.38;2.72;;;;;;;13.70;81.78;100892.38;8391481;28;20130;-57
2022/11/02 05:59:46;;;;;;;14.45;1.58;;;;;;;13.73;81.47;100897.53;8392677;28;20090;-56
2022/11/02 06:03:46;;;;;;;11.35;1.65;;;;;;;13.70;81.65;100904.09;8392110;28;20072;-55
2022/11/02 06:07:47;;;;;;;6.93;1.48;;;;;;;13.66;81.83;100916.28;8391359;28;20040;-56
2022/11/02 06:11:47;;;;;;;10.88;1.42;;;;;;;13.61;81.65;100906.88;8384105;28;20120;-54
2022/11/02 06:15:48;;;;;;;11.48;1.67;;;;;;;13.53;82.17;100912.19;8391456;28;20402;-56
2022/11/02 06:19:49;;;;;;;7.30;1.83;;;;;;;13.62;81.70;100912.16;8385006;28;20041;-56
2022/11/02 06:23:49;;;;;;;12.13;1.63;;;;;;;13.63;81.61;100913.88;8385930;28;20071;-56
2022/11/02 06:27:54;;;;;;;13.70;1.75;;;;;;;13.61;81.66;100925.91;8391861;28;20043;-54
2022/11/02 06:31:56;;;;;;;7.63;2.10;;;;;;;13.59;82.15;100938.75;8384561;28;20050;-56
2022/11/02 06:35:56;;;;;;;10.07;1.90;;;;;;;13.53;82.61;100950.22;8390623;28;20044;-52
2022/11/02 06:39:57;;;;;;;10.10;1.70;;;;;;;13.52;82.78;100943.09;8392031;28;20036;-55
2022/11/02 06:43:58;;;;;;;12.80;1.77;;;;;;;13.53;82.60;100951.09;8385202;28;20036;-55
2022/11/02 06:47:59;;;;;;;14.70;1.63;;;;;;;13.52;82.72;100957.53;8381230;28;20481;-56
2022/11/02 06:52:00;;;;;;;10.88;1.67;;;;;;;13.52;82.99;100962.13;8364489;28;20065;-56
2022/11/02 06:56:01;;;;;;;14.30;2.55;;;;;;;13.61;82.51;100982.94;8382113;28;20040;-53
2022/11/02 07:00:04;;;;;;;14.15;2.38;;;;;;;13.58;82.95;100986.81;8387242;28;20032;-56
2022/11/02 07:04:05;;;;;;;10.90;1.70;;;;;;;13.59;83.04;100998.53;8367480;28;20036;-54
2022/11/02 07:08:05;;;;;;;10.05;1.58;;;;;;;13.58;82.99;101003.09;8370620;28;20515;-56
2022/11/02 07:12:06;;;;;;;10.60;1.73;;;;;;;13.51;83.71;101018.28;8379643;28;20445;-54
2022/11/02 07:16:07;;;;;;;17.20;2.25;;;;;;;13.55;84.01;101021.59;8368209;28;20052;-53
2022/11/02 07:20:09;;;;;;;15.20;2.05;;;;;;;13.68;83.69;101028.41;8361361;28;20252;-56
2022/11/02 07:24:10;;;;;;;12.23;2.20;;;;;;;13.79;83.45;101035.53;8372529;28;20036;-55
2022/11/02 07:28:10;;;;;;;14.35;1.95;;;;;;;13.86;83.23;101044.78;8370162;28;20037;-55
2022/11/02 07:32:11;;;;;;;12.20;1.80;;;;;;;13.94;82.73;101055.78;8375610;28;20540;-54
2022/11/02 07:36:12;;;;;;;8.68;1.85;;;;;;;14.04;82.31;101056.59;8378989;28;20041;-56
2022/11/02 07:40:13;;;;;;;14.18;1.50;;;;;;;14.15;82.19;101067.25;8364184;28;20067;-54
2022/11/02 07:44:14;;;;;;;9.57;1.85;;;;;;;14.21;81.83;101072.09;8377264;28;20116;-56
2022/11/02 07:48:34;;;;;;;16.67;1.63;;;;;;;14.33;80.87;101076.38;8372274;28;20048;-56
2022/11/02 07:52:44;;;;;;;12.63;1.85;;;;;;;14.44;80.54;101084.34;8378545;28;20040;-54
2022/11/02 07:56:44;;;;;;;13.50;2.10;;;;;;;14.53;80.44;101090.72;8368203;28;20376;-57
2022/11/02 08:00:45;;;;;;;17.65;2.92;;;;;;;14.61;80.12;101102.56;8384252;28;20605;-54
2022/11/02 08:04:45;;;;;;;16.98;2.15;;;;;;;14.69;80.02;101099.94;8384833;28;20043;-54
2022/11/02 08:08:46;;;;;;;18.80;2.10;;;;;;;14.79;79.45;101110.78;8387734;28;20033;-55
2022/11/02 08:12:48;;;;;;;9.95;2.25;;;;;;;14.83;78.72;101121.22;8369839;28;20082;-57
2022/11/02 08:16:51;;;;;;;10.20;1.58;;;;;;;14.93;79.17;101134.75;8392296;28;20093;-55
2022/11/02 08:20:53;;;;;;;11.32;1.83;;;;;;;14.96;78.49;101134.44;8390753;28;20120;-55
2022/11/02 08:24:53;;;;;;;10.82;1.88;;;;;;;15.10;77.94;101137.47;8388615;28;20044;-52
2022/11/02 08:28:54;;;;;;;16.00;2.75;;;;;;;15.21;77.57;101137.28;8391651;28;20046;-56
2022/11/02 08:33:00;;;;;;;13.35;2.63;;;;;;;15.22;76.58;101129.97;8392198;28;20040;-56
2022/11/02 08:37:01;;;;;;;14.10;1.77;;;;;;;15.32;77.68;101147.09;8391605;28;20044;-57
2022/11/02 08:41:03;;;;;;;9.80;1.88;;;;;;;15.66;76.31;101151.69;8393090;28;20553;-56
2022/11/02 08:45:05;;;;;;;13.10;2.35;;;;;;;17.18;70.72;101151.69;8390930;28;20049;-56
2022/11/02 08:49:06;;;;;;;8.07;1.65;;;;;;;18.73;65.83;101150.34;8377142;28;20543;-56
2022/11/02 08:53:07;;;;;;;13.82;1.67;;;;;;;19.39;63.82;101150.72;8372362;28;20659;-56
2022/11/02 08:57:08;;;;;;;14.77;1.85;;;;;;;19.39;62.41;101152.59;8380001;28;20040;-55
2022/11/02 09:01:08;;;;;;;13.65;1.83;;;;;;;20.00;60.69;101168.06;8387166;28;20043;-54
2022/11/02 09:05:09;;;;;;;11.75;1.63;;;;;;;20.14;60.19;101170.00;8383448;28;20041;-55
2022/11/02 09:09:10;;;;;;;9.32;1.73;;;;;;;20.65;59.43;101177.38;8377943;28;20040;-56
2022/11/02 09:13:12;;;;;;;10.93;1.58;;;;;;;20.43;58.44;101170.06;8367766;28;20102;-56
2022/11/02 09:17:13;;;;;;;10.65;1.73;;;;;;;20.21;57.98;101177.31;8357297;28;20503;-56
2022/11/02 09:21:13;;;;;;;8.40;1.88;;;;;;;20.38;58.68;101175.28;8364069;28;20402;-56
2022/11/02 09:25:16;;;;;;;6.90;1.45;;;;;;;20.32;57.86;101178.75;8390388;28;20037;-55
2022/11/02 09:29:16;;;;;;;16.73;1.88;;;;;;;20.33;58.26;101185.94;8388003;28;20090;-56
2022/11/02 09:33:17;;;;;;;10.05;1.65;;;;;;;20.67;58.00;101183.50;8385065;28;20044;-56
2022/11/02 09:37:18;;;;;;;9.93;1.85;;;;;;;21.13;56.25;101172.13;8367593;28;20300;-56
2022/11/02 09:41:33;;;;;;;11.00;1.83;;;;;;;20.77;56.59;101173.09;8390731;28;20036;-56
2022/11/02 09:45:45;;;;;;;12.82;2.08;;;;;;;21.07;56.29;101180.28;8389655;28;20123;-55
2022/11/02 09:49:46;;;;;;;9.25;1.40;;;;;;;21.06;57.04;101184.97;8390041;28;20454;-57
2022/11/02 09:58:28;;;;;;;15.68;2.38;;;;;;;21.20;55.51;101183.22;8392057;27;20393;-56
2022/11/02 10:03:09;;;;;;;12.27;1.45;;;;;;;21.28;55.53;101188.59;8369178;28;20063;-55
2022/11/02 10:07:28;;;;;;;7.20;1.33;;;;;;;21.50;54.72;101198.59;8364475;28;20095;-55
2022/11/02 10:12:01;;;;;;;7.95;1.60;;;;;;;21.41;55.32;101188.78;8365063;28;20131;-52
2022/11/02 10:16:10;;;;;;;12.90;1.58;;;;;;;22.00;53.43;101194.91;8378989;28;20489;-54
2022/11/02 10:20:25;;;;;;;8.00;1.65;;;;;;;21.92;53.28;101193.13;8377040;28;20064;-55
2022/11/02 10:24:36;;;;;;;8.70;1.63;;;;;;;21.82;53.11;101192.63;8376790;28;20064;-56
2022/11/02 10:28:40;;;;;;;10.65;1.83;;;;;;;21.75;52.83;101188.97;8382060;28;20110;-55
2022/11/02 10:32:43;;;;;;;;;;;;;;;22.03;52.96;101184.34;8382122;28;20040;-56
2022/11/02 10:36:59;;;;;;;11.85;1.58;;;;;;;22.67;51.18;101188.69;8381692;28;19980;-56
2022/11/02 10:41:17;;;;;;;9.00;1.45;;;;;;;22.79;51.03;101187.06;8381597;28;20410;-57
2022/11/02 10:45:47;;;;;;;10.07;1.45;;;;;;;22.70;50.29;101193.81;8349680;28;20383;-56
2022/11/02 10:50:27;;;;;;;10.88;1.45;;;;;;;22.95;51.24;101199.66;8381721;28;20048;-55
2022/11/02 10:54:27;;;;;;;12.98;1.30;;;;;;;22.45;51.58;101200.78;8379615;28;20041;-56
2022/11/02 10:58:32;;;;;;;10.98;1.10;;;;;;;22.78;50.94;101190.88;8385750;28;20127;-56
2022/11/02 11:02:33;;;;;;;11.35;1.58;;;;;;;21.17;53.51;101186.34;8399664;28;20078;-55
2022/11/02 11:06:38;;;;;;;8.27;1.27;;;;;;;21.75;52.52;101190.84;8406629;28;20065;-56
2022/11/02 11:10:38;;;;;;;7.20;0.98;;;;;;;22.64;50.77;101193.75;8359921;28;20033;-53
2022/11/02 11:14:46;;;;;;;7.63;1.50;;;;;;;23.10;50.48;101195.72;8358966;28;20098;-60
2022/11/02 11:18:50;;;;;;;4.45;0.95;;;;;;;23.43;49.18;101189.50;8351576;28;20103;-57
2022/11/02 11:23:23;;;;;;;6.68;1.40;;;;;;;23.38;49.17;101190.13;8357375;28;20557;-56
2022/11/02 11:27:23;;;;;;;3.55;0.80;;;;;;;23.32;48.90;101203.91;8357385;28;20473;-56
2022/11/02 11:31:24;;;;;;;5.72;1.17;;;;;;;23.68;47.95;101185.97;8365489;28;20040;-57
2022/11/02 11:35:32;;;;;;;7.40;1.40;;;;;;;23.09;49.12;101182.13;8389778;28;20429;-57
2022/11/02 11:39:34;;;;;;;6.13;0.90;;;;;;;23.00;49.21;101192.47;8358060;28;20493;-56
2022/11/02 11:43:37;;;;;;;7.45;1.40;;;;;;;23.93;48.80;101175.13;8350896;28;20132;-56
2022/11/02 11:47:40;;;;;;;4.40;1.08;;;;;;;23.73;49.50;101179.81;8355966;28;20029;-56
2022/11/02 11:51:42;;;;;;;7.53;1.30;;;;;;;22.82;49.53;101174.78;8356564;28;20052;-56
2022/11/02 11:55:49;;;;;;;9.25;1.52;;;;;;;22.07;51.45;101169.13;8355918;28;20094;-56
2022/11/02 11:59:51;;;;;;;9.35;1.15;;;;;;;23.13;49.29;101162.19;8364980;28;20114;-56
2022/11/02 12:03:59;;;;;;;7.95;1.13;;;;;;;24.00;47.33;101162.22;8382800;28;20393;-57
2022/11/02 12:13:02;;;;;;;7.63;1.55;;;;;;;23.62;46.17;101158.31;8280501;28;20409;-56
2022/11/02 12:17:33;;;;;;;8.20;1.15;;;;;;;23.45;47.08;101154.25;8277901;28;20038;-56
2022/11/02 12:25:59;;;;;;;8.85;1.38;;;;;;;22.97;47.91;101140.47;8302651;28;20359;-56
2022/11/02 12:30:22;;;;;;;7.70;1.50;;;;;;;23.34;48.33;101141.91;8293966;28;20119;-55
2022/11/02 12:34:42;;;;;;;7.28;1.42;;;;;;;23.29;47.34;101135.31;8280073;28;20452;-57
2022/11/02 12:39:18;;;;;;;8.68;1.27;;;;;;;23.18;46.69;101132.06;8286128;28;20038;-56
2022/11/02 12:43:37;;;;;;;6.50;1.05;;;;;;;22.91;47.61;101130.25;8287714;28;20046;-56
2022/11/02 12:47:58;;;;;;;8.05;1.08;;;;;;;21.13;49.75;101124.50;8276983;28;20045;-57
2022/11/02 12:52:26;;;;;;;9.52;1.40;;;;;;;19.85;52.78;101121.34;8286348;28;20045;-56
2022/11/02 12:56:42;;;;;;;13.18;1.35;;;;;;;19.22;54.78;101135.34;8242830;28;20041;-55
2022/11/02 13:00:46;;;;;;;10.13;1.65;;;;;;;18.69;54.64;101132.56;8295958;28;20041;-56
2022/11/02 13:04:53;;;;;;;7.97;1.20;;;;;;;18.42;54.77;101129.44;8278741;28;20072;-56
2022/11/02 13:09:06;;;;;;;15.13;1.48;;;;;;;18.13;55.96;101118.19;8266331;28;20088;-55
2022/11/02 13:13:14;;;;;;;8.30;1.45;;;;;;;18.07;56.66;101117.00;8279220;28;20033;-56
2022/11/02 13:17:55;;;;;;;10.20;1.60;;;;;;;18.15;57.19;101110.66;8258287;28;20053;-56
2022/11/02 13:21:57;;;;;;;9.55;1.40;;;;;;;18.05;57.41;101110.84;8271761;28;20034;-56
2022/11/02 13:26:01;;;;;;;8.77;1.20;;;;;;;18.25;57.24;101112.19;8281455;28;20074;-57
2022/11/02 13:30:11;;;;;;;9.85;1.98;;;;;;;18.22;57.00;101107.06;8291918;28;20372;-55
2022/11/02 13:34:18;;;;;;;8.93;1.42;;;;;;;18.19;56.80;101112.88;8297627;28;20045;-56
2022/11/02 13:38:49;;;;;;;10.75;1.48;;;;;;;18.07;56.82;101097.84;8216679;28;20041;-56
2022/11/02 13:43:06;;;;;;;5.68;1.30;;;;;;;18.02;56.71;101097.50;8255868;28;20411;-56
2022/11/02 13:47:25;;;;;;;9.48;1.20;;;;;;;17.90;57.59;101093.44;8273850;28;20128;-56
2022/11/02 13:51:33;;;;;;;9.10;1.55;;;;;;;17.72;57.72;101098.25;8269355;28;20392;-56
2022/11/02 13:55:43;;;;;;;10.80;1.65;;;;;;;17.51;59.15;101095.19;8277033;28;20050;-56
2022/11/02 13:59:44;;;;;;;13.77;1.67;;;;;;;17.40;59.18;101092.75;8262878;28;20120;-58
2022/11/02 14:03:56;;;;;;;13.15;2.17;;;;;;;17.64;59.14;101090.06;8271894;28;20037;-55
2022/11/02 14:08:01;;;;;;;12.98;1.88;;;;;;;17.61;59.41;101095.88;8265616;28;20041;-57
2022/11/02 14:17:11;;;;;;;8.93;1.48;;;;;;;17.64;60.09;101084.59;8379188;27;20395;-56
2022/11/02 14:21:40;;;;;;;13.05;1.48;;;;;;;17.47;60.81;101082.88;8372339;28;20040;-57
2022/11/02 14:25:49;;;;;;;16.90;1.75;;;;;;;17.34;61.21;101082.50;8373220;28;20036;-58
2022/11/02 14:29:52;;;;;;;12.32;1.58;;;;;;;17.44;61.37;101088.69;8374265;28;20461;-57
2022/11/02 14:38:55;;;;;;;13.25;1.83;;;;;;;17.29;62.30;101079.41;8387322;27;20401;-55
2022/11/02 14:43:25;;;;;;;19.75;2.00;;;;;;;17.28;61.76;101072.25;8312847;28;20037;-56
2022/11/02 14:47:29;;;;;;;13.95;1.23;;;;;;;17.15;62.04;101066.44;8314745;28;20053;-54
2022/11/02 14:51:35;;;;;;;6.38;1.40;;;;;;;16.84;63.05;101068.94;8314569;28;20244;-55
2022/11/02 14:55:37;;;;;;;11.05;1.65;;;;;;;16.73;63.79;101060.22;8314098;28;20052;-56
2022/11/02 14:59:43;;;;;;;11.00;1.90;;;;;;;16.61;63.92;101061.53;8367823;28;20120;-55
2022/11/02 15:03:47;;;;;;;11.63;1.90;;;;;;;16.36;64.58;101062.44;8344804;28;20044;-52
2022/11/02 15:07:54;;;;;;;14.52;1.45;;;;;;;16.32;64.50;101058.34;8338988;28;20521;-55
2022/11/02 15:11:57;;;;;;;14.18;1.58;;;;;;;16.19;64.01;101052.50;8345375;27;20422;-52
2022/11/02 15:20:19;;;;;;;8.75;1.23;;;;;;;15.91;63.92;101040.91;8346589;27;20392;-55
2022/11/02 15:24:27;;;;;;;12.23;1.52;;;;;;;15.84;63.86;101030.81;8347291;28;20453;-56
2022/11/02 15:28:31;;;;;;;9.38;1.33;;;;;;;15.77;63.68;101039.63;8346730;28;20045;-55
2022/11/02 15:32:39;;;;;;;7.15;1.40;;;;;;;15.56;64.08;101041.88;8365231;28;20606;-55
2022/11/02 15:36:42;;;;;;;12.18;1.90;;;;;;;15.40;65.28;101047.22;8346297;28;20037;-55
2022/11/02 15:40:47;;;;;;;8.43;1.60;;;;;;;15.31;65.77;101048.13;8346109;28;20040;-55
2022/11/02 15:49:43;;;;;;;11.20;1.60;;;;;;;15.05;66.40;101052.69;8335681;27;20387;-55
2022/11/02 15:54:13;;;;;;;5.38;1.48;;;;;;;15.00;65.75;101037.81;8331589;28;20037;-53
2022/11/02 15:58:37;;;;;;;5.28;1.20;;;;;;;14.91;66.06;101039.59;8321839;28;20043;-55
2022/11/02 16:02:42;;;;;;;11.40;1.38;;;;;;;14.67;67.17;101042.06;8313032;28;20034;-56
2022/11/02 16:06:43;;;;;;;;;;;;;;;14.57;67.27;101040.44;8327502;28;20494;-56
2022/11/02 16:10:46;;;;;;;8.75;1.80;;;;;;;14.49;67.20;101040.34;8335052;28;20396;-55
2022/11/02 16:15:11;;;;;;;12.52;1.65;;;;;;;14.28;67.85;101035.19;8317556;28;20384;-56
2022/11/02 16:19:19;;;;;;;10.15;1.80;;;;;;;14.14;69.27;101042.94;8334053;28;20045;-53
2022/11/02 16:23:24;;;;;;;5.43;1.17;;;;;;;14.17;68.07;101048.94;8321269;28;20044;-55
2022/11/02 16:27:25;;;;;;;14.98;4.38;;;;;;;14.15;68.47;101044.66;8336014;28;20581;-55
2022/11/02 16:31:29;;;;;;;12.20;2.70;;;;;;;14.07;68.91;101042.69;8328764;28;20407;-56
2022/11/02 16:35:31;;;;;;;13.15;2.10;;;;;;;13.97;69.10;101046.47;8338638;28;20048;-55
2022/11/02 16:39:36;;;;;;;11.40;1.38;;;;;;;13.71;69.68;101040.81;8317380;28;20338;-55
2022/11/02 16:43:42;;;;;;;6.72;1.83;;;;;;;13.52;71.15;101046.31;8313156;28;20041;-55
2022/11/02 16:47:43;;;;;;;14.50;2.47;;;;;;;13.50;71.29;101042.88;8343095;28;20084;-56
2022/11/02 16:51:53;;;;;;;10.60;1.40;;;;;;;13.44;71.31;101038.91;8327828;28;20038;-55
2022/11/02 16:55:59;;;;;;;21.42;5.18;;;;;;;13.35;72.00;101034.34;8342311;28;20409;-55
2022/11/02 17:00:08;;;;;;;14.90;2.10;;;;;;;13.09;73.07;101041.38;8315710;28;20067;-55
2022/11/02 17:04:26;;;;;;;18.58;4.85;;;;;;;12.82;74.29;101040.34;8305210;28;20037;-53
2022/11/02 17:08:30;;;;;;;9.48;1.77;;;;;;;12.66;75.18;101040.91;8301161;28;20371;-54
2022/11/02 17:12:33;;;;;;;;;;;;;;;12.45;76.25;101039.31;8322754;28;20579;-55
2022/11/02 17:16:34;;;;;;;11.85;2.10;;;;;;;12.34;76.93;101034.00;8302654;28;20286;-53
2022/11/02 17:20:36;;;;;;;12.55;2.22;;;;;;;12.25;77.87;101029.41;8311619;28;20056;-54
2022/11/02 17:24:37;;;;;;;12.23;2.33;;;;;;;12.25;78.12;101035.69;8322670;28;20036;-55
2022/11/02 17:28:43;;;;;;;13.07;2.22;;;;;;;12.18;78.53;101030.97;8309242;28;20049;-53
2022/11/02 17:32:43;;;;;;;7.50;2.28;;;;;;;12.20;78.54;101037.13;8311656;28;20045;-54
2022/11/02 17:36:46;;;;;;;17.70;3.72;;;;;;;12.05;79.01;101033.94;8322888;28;20045;-55
2022/11/02 17:40:51;;;;;;;12.20;3.35;;;;;;;11.97;79.51;101035.59;8305926;28;20095;-53
2022/11/02 17:44:51;;;;;;;19.27;3.70;;;;;;;11.85;80.17;101037.53;8315809;28;20042;-53
2022/11/02 17:48:52;;;;;;;14.23;3.97;;;;;;;11.77;80.51;101035.50;8318986;28;20137;-54
2022/11/02 17:52:53;;;;;;;11.15;2.92;;;;;;;11.63;81.51;101038.59;8320419;28;20557;-53
2022/11/02 17:56:53;;;;;;;12.98;3.45;;;;;;;11.44;82.38;101038.44;8311763;28;20064;-54
2022/11/02 18:00:54;;;;;;;12.52;2.83;;;;;;;11.33;83.14;101033.13;8306774;28;20124;-51
2022/11/02 18:04:55;;;;;;;6.65;1.75;;;;;;;11.20;83.45;101024.31;8308153;28;20053;-52
2022/11/02 18:09:12;;;;;;;6.13;2.00;;;;;;;11.13;83.78;101020.44;8299548;28;20065;-53
2022/11/02 18:13:18;;;;;;;8.45;3.33;;;;;;;11.12;84.29;101015.16;8304227;28;20254;-53
2022/11/02 18:17:19;;;;;;;12.13;2.65;;;;;;;11.16;84.29;101016.63;8315564;28;20061;-51
2022/11/02 18:21:19;;;;;;;8.20;2.15;;;;;;;11.22;83.48;101014.22;8317498;28;20037;-54
2022/11/02 18:25:20;;;;;;;10.48;2.20;;;;;;;11.20;83.64;101008.06;8303815;28;20469;-52
2022/11/02 18:29:21;;;;;;;12.43;2.50;;;;;;;11.13;84.11;101004.19;8303864;28;20065;-53
2022/11/02 18:33:21;;;;;;;9.25;2.50;;;;;;;11.09;84.44;100991.94;8295688;28;20052;-54
2022/11/02 18:37:22;;;;;;;7.20;2.00;;;;;;;11.22;84.02;100995.28;8309093;28;20460;-54
2022/11/02 18:41:26;;;;;;;11.27;2.65;;;;;;;11.36;82.97;100986.81;8293628;28;20037;-55
2022/11/02 18:45:27;;;;;;;12.47;2.90;;;;;;;11.33;83.29;100987.09;8304089;28;20069;-54
2022/11/02 18:49:27;;;;;;;12.50;2.75;;;;;;;11.35;83.19;100982.38;8319408;28;20037;-55
2022/11/02 18:53:28;;;;;;;16.00;3.50;;;;;;;11.25;83.64;100986.88;8312478;28;20494;-55
2022/11/02 18:57:29;;;;;;;13.80;2.65;;;;;;;11.14;83.80;100992.41;8318381;28;20499;-55
2022/11/02 19:01:30;;;;;;;11.18;2.60;;;;;;;10.94;85.05;100990.53;8321085;28;20042;-52
2022/11/02 19:09:51;;;;;;;13.02;2.45;;;;;;;10.72;86.82;100984.38;8275534;28;20037;-53
2022/11/02 19:13:52;;;;;;;8.95;2.95;;;;;;;10.68;86.92;100996.44;8292062;28;20611;-54
2022/11/02 19:17:52;;;;;;;16.20;3.45;;;;;;;10.70;87.05;100992.63;8316324;28;20099;-55
2022/11/02 19:21:53;;;;;;;17.83;4.43;;;;;;;10.62;87.85;100991.56;8325198;28;20128;-55
2022/11/02 19:25:53;;;;;;;38.40;14.85;;;;;;;10.53;88.07;100979.69;8314279;28;20487;-53
2022/11/02 19:29:54;;;;;;;20.00;5.88;;;;;;;10.56;87.85;100965.03;8315518;28;20110;-52
2022/11/02 19:33:55;;;;;;;15.30;4.05;;;;;;;10.68;87.32;100945.06;8303546;28;20052;-52
2022/11/02 19:37:57;;;;;;;16.88;4.82;;;;;;;10.82;86.99;100945.59;8291485;28;20037;-51
2022/11/02 19:41:57;;;;;;;10.30;3.08;;;;;;;10.89;86.83;100933.25;8318029;28;20144;-53
2022/11/02 19:46:01;;;;;;;19.40;4.82;;;;;;;10.81;87.33;100924.97;8318218;28;20045;-55